Time;durP1;ratioP1;P1;durP2;ratioP2;P2;SDS_P1;SDS_P2;PMS_P1;PMS_P2;Temp;Humidity;BMP_temperature;BMP_pressure;BME280_temperature;BME280_humidity;BME280_pressure;Samples;Min_cycle;Max_cycle;Signal;HPM_P1;HPM_P2
2022/03/07 00:02:13;;;;;;;7.97;6.03;;;;;;;0.18;67.51;101849.50;5033984;28;20025;-21
2022/03/07 00:04:39;;;;;;;6.22;5.60;;;;;;;0.18;67.68;101852.09;5027761;28;20017;-21
2022/03/07 00:07:04;;;;;;;6.63;5.97;;;;;;;0.18;67.27;101844.31;5019653;28;20029;-21
2022/03/07 00:09:30;;;;;;;6.72;5.70;;;;;;;0.17;67.50;101855.50;5033273;28;20549;-21
2022/03/07 00:11:55;;;;;;;6.00;5.47;;;;;;;0.17;67.23;101852.91;5036020;28;20029;-22
2022/03/07 00:14:21;;;;;;;6.55;5.90;;;;;;;0.16;67.54;101858.94;5030803;28;20036;-21
2022/03/07 00:16:46;;;;;;;7.18;6.40;;;;;;;0.16;67.38;101851.13;5031085;28;20126;-22
2022/03/07 00:19:12;;;;;;;6.25;5.65;;;;;;;0.16;67.59;101859.78;5032048;28;20083;-22
2022/03/07 00:21:38;;;;;;;7.18;6.40;;;;;;;0.15;67.75;101854.53;5031013;28;20053;-22
2022/03/07 00:24:04;;;;;;;6.70;6.10;;;;;;;0.15;67.53;101850.25;5037558;28;20593;-22
2022/03/07 00:26:30;;;;;;;6.72;5.97;;;;;;;0.14;67.38;101853.66;5031590;28;20021;-22
2022/03/07 00:28:55;;;;;;;7.10;6.40;;;;;;;0.15;67.40;101854.53;5032929;28;20040;-21
2022/03/07 00:31:21;;;;;;;7.00;6.28;;;;;;;0.15;68.00;101851.94;5019662;28;20054;-21
2022/03/07 00:33:46;;;;;;;7.63;5.97;;;;;;;0.14;67.60;101850.16;5030534;28;20033;-21
2022/03/07 00:36:12;;;;;;;7.00;5.80;;;;;;;0.14;67.30;101851.06;5030545;28;20075;-21
2022/03/07 00:38:37;;;;;;;6.30;5.70;;;;;;;0.15;67.86;101851.94;5031987;28;20091;-22
2022/03/07 00:41:03;;;;;;;6.57;5.97;;;;;;;0.11;67.58;101849.16;5035365;28;20028;-21
2022/03/07 00:43:28;;;;;;;7.00;6.30;;;;;;;0.11;67.94;101854.34;5031003;28;20021;-21
2022/03/07 00:45:54;;;;;;;8.27;6.47;;;;;;;0.14;67.96;101852.75;5014841;28;20037;-22
2022/03/07 00:48:19;;;;;;;6.88;6.18;;;;;;;0.14;67.23;101853.66;5035736;28;20039;-22
2022/03/07 00:50:46;;;;;;;7.95;6.47;;;;;;;0.11;67.73;101850.88;5012438;28;20044;-22
2022/03/07 00:53:13;;;;;;;7.72;6.63;;;;;;;0.11;67.44;101853.47;5031601;28;20056;-21
2022/03/07 00:55:39;;;;;;;6.68;5.93;;;;;;;0.10;67.83;101855.19;5032542;28;20176;-22
2022/03/07 00:58:05;;;;;;;6.30;5.70;;;;;;;0.11;67.43;101848.28;5030873;28;20088;-22
2022/03/07 01:00:31;;;;;;;7.47;6.20;;;;;;;0.11;67.64;101858.69;5032906;28;20472;-22
2022/03/07 01:02:57;;;;;;;7.32;6.63;;;;;;;0.11;67.31;101854.34;5033014;28;20021;-21
2022/03/07 01:05:22;;;;;;;7.55;6.85;;;;;;;0.10;68.01;101855.19;5031855;28;20132;-22
2022/03/07 01:07:48;;;;;;;7.60;6.57;;;;;;;0.11;67.91;101848.28;5025579;28;20060;-22
2022/03/07 01:10:13;;;;;;;7.07;6.20;;;;;;;0.08;67.65;101854.22;5020830;28;20072;-22
2022/03/07 01:12:39;;;;;;;7.60;6.70;;;;;;;0.09;67.78;101855.09;5040001;28;20044;-22
2022/03/07 01:15:05;;;;;;;7.15;6.45;;;;;;;0.08;67.35;101849.03;5041667;28;20033;-22
2022/03/07 01:17:31;;;;;;;7.13;6.43;;;;;;;0.07;68.00;101851.53;5036341;28;20053;-22
2022/03/07 01:19:56;;;;;;;8.02;6.55;;;;;;;0.06;67.73;101850.63;5040187;28;20031;-22
2022/03/07 01:22:21;;;;;;;9.20;7.00;;;;;;;0.05;67.75;101848.88;5035775;28;20033;-22
2022/03/07 01:24:47;;;;;;;8.23;6.80;;;;;;;0.06;67.90;101857.50;5039871;28;20394;-22
2022/03/07 01:27:12;;;;;;;7.55;6.82;;;;;;;0.06;67.53;101855.81;5038930;28;20035;-21
2022/03/07 01:29:38;;;;;;;6.82;6.13;;;;;;;0.05;67.36;101853.16;5036314;28;20406;-21
2022/03/07 01:32:03;;;;;;;7.18;6.47;;;;;;;0.04;67.86;101862.66;5036762;28;20049;-21
2022/03/07 01:34:29;;;;;;;8.20;6.70;;;;;;;0.03;67.57;101858.25;5016834;28;20025;-22
2022/03/07 01:36:54;;;;;;;9.20;6.88;;;;;;;0.03;67.77;101855.66;5041846;28;20119;-22
2022/03/07 01:39:19;;;;;;;7.75;6.95;;;;;;;0.02;67.37;101853.88;5037714;28;20286;-22
2022/03/07 01:41:45;;;;;;;7.93;7.13;;;;;;;0.03;67.94;101839.22;5033225;28;20124;-22
2022/03/07 01:44:21;;;;;;;7.20;6.50;;;;;;;0.02;67.60;101834.81;5036887;28;20048;-22
2022/03/07 01:46:48;;;;;;;8.95;6.45;;;;;;;0.02;67.43;101840.91;5034847;28;20032;-22
2022/03/07 01:49:13;;;;;;;9.32;6.47;;;;;;;0.00;67.43;101837.38;5018306;28;20113;-22
2022/03/07 01:51:43;;;;;;;9.15;8.23;;;;;;;0.02;67.65;101848.69;5034237;28;20120;-22
2022/03/07 01:54:10;;;;;;;8.35;6.78;;;;;;;0.02;67.71;101835.72;5032980;28;20468;-22
2022/03/07 01:56:36;;;;;;;7.88;6.38;;;;;;;0.01;67.75;101836.53;5035156;28;20441;-22
2022/03/07 01:59:03;;;;;;;7.38;6.72;;;;;;;0.01;67.33;101835.63;5034359;28;20475;-22
2022/03/07 02:01:29;;;;;;;8.52;6.53;;;;;;;0.01;67.67;101835.63;5029376;28;20033;-22
2022/03/07 02:03:54;;;;;;;8.15;6.75;;;;;;;0.00;67.41;101832.19;5016481;28;20020;-22
2022/03/07 02:06:19;;;;;;;8.63;6.97;;;;;;;-0.02;67.54;101831.19;5034934;28;20033;-22
2022/03/07 02:08:45;;;;;;;9.48;7.38;;;;;;;-0.02;68.05;101826.00;5020715;28;20124;-22
2022/03/07 02:11:11;;;;;;;9.77;7.32;;;;;;;-0.01;67.91;101830.38;5018692;28;20048;-22
2022/03/07 02:13:36;;;;;;;7.50;6.80;;;;;;;-0.03;67.68;101827.69;5037311;28;20056;-22
2022/03/07 02:16:01;;;;;;;11.93;7.13;;;;;;;-0.03;67.33;101830.28;5041645;28;20059;-22
2022/03/07 02:18:29;;;;;;;8.60;7.18;;;;;;;-0.02;67.69;101831.19;5036243;28;20040;-22
2022/03/07 02:20:56;;;;;;;8.55;7.32;;;;;;;-0.03;67.73;101825.09;5038348;28;20078;-22
2022/03/07 02:23:22;;;;;;;9.13;7.60;;;;;;;-0.04;67.93;101817.22;5040572;28;20029;-22
2022/03/07 02:25:47;;;;;;;10.65;7.60;;;;;;;-0.04;67.59;101822.41;5043938;28;20036;-22
2022/03/07 02:28:14;;;;;;;10.43;7.03;;;;;;;-0.05;67.89;101824.13;5039632;28;20036;-22
2022/03/07 02:30:39;;;;;;;9.77;7.60;;;;;;;-0.04;67.51;101832.78;5042765;28;20031;-22
2022/03/07 02:33:05;;;;;;;9.05;7.60;;;;;;;-0.05;68.04;101831.91;5042477;28;20032;-22
2022/03/07 02:35:30;;;;;;;10.77;7.53;;;;;;;-0.05;68.02;101818.03;5043668;28;20280;-22
2022/03/07 02:37:55;;;;;;;9.20;8.30;;;;;;;-0.06;67.69;101819.78;5041805;28;20075;-22
2022/03/07 02:40:21;;;;;;;9.52;8.50;;;;;;;-0.06;68.08;101818.88;5039452;28;20410;-22
2022/03/07 02:42:46;;;;;;;11.68;7.45;;;;;;;-0.08;67.90;101810.09;5037930;28;20037;-22
2022/03/07 02:45:12;;;;;;;10.13;7.75;;;;;;;-0.05;68.14;101812.84;5041611;28;20513;-22
2022/03/07 02:47:37;;;;;;;9.60;7.47;;;;;;;-0.07;67.76;101812.78;5037598;28;20041;-22
2022/03/07 02:50:04;;;;;;;10.50;8.00;;;;;;;-0.07;68.01;101817.97;5041106;28;20059;-22
2022/03/07 02:52:29;;;;;;;9.07;7.82;;;;;;;-0.07;67.58;101817.09;5023099;28;20029;-22
2022/03/07 02:54:54;;;;;;;9.57;7.35;;;;;;;-0.07;68.00;101819.69;5032809;28;20440;-22
2022/03/07 02:57:20;;;;;;;8.95;7.78;;;;;;;-0.07;67.77;101811.91;5033973;28;20037;-22
2022/03/07 02:59:45;;;;;;;9.70;8.25;;;;;;;-0.07;67.63;101819.69;5033735;28;20032;-22
2022/03/07 03:02:11;;;;;;;8.80;7.90;;;;;;;-0.08;68.18;101820.47;5034381;28;20534;-22
2022/03/07 03:04:36;;;;;;;11.57;7.47;;;;;;;-0.08;68.02;101825.66;5033092;28;20025;-22
2022/03/07 03:07:02;;;;;;;12.15;7.82;;;;;;;-0.09;67.95;101824.78;5035059;28;20022;-22
2022/03/07 03:09:27;;;;;;;8.40;7.53;;;;;;;-0.08;67.77;101825.66;5031485;28;20029;-22
2022/03/07 03:11:53;;;;;;;8.65;7.72;;;;;;;-0.08;67.79;101825.66;5030826;28;20033;-22
2022/03/07 03:14:18;;;;;;;9.18;7.30;;;;;;;-0.08;67.90;101825.66;5032398;28;20402;-22
2022/03/07 03:16:44;;;;;;;8.45;7.13;;;;;;;-0.09;67.50;101827.38;5031713;28;20033;-22
2022/03/07 03:19:09;;;;;;;10.07;8.25;;;;;;;-0.10;67.83;101822.09;5030861;28;20026;-22
2022/03/07 03:21:34;;;;;;;8.80;7.40;;;;;;;-0.10;67.66;101820.38;5029100;28;20545;-22
2022/03/07 03:24:00;;;;;;;8.27;7.45;;;;;;;-0.09;67.55;101816.09;5031641;28;20021;-22
2022/03/07 03:26:25;;;;;;;11.07;7.75;;;;;;;-0.11;68.09;101818.63;5029805;28;20516;-22
2022/03/07 03:28:50;;;;;;;7.57;6.82;;;;;;;-0.09;67.97;101813.50;4999572;28;20060;-22
2022/03/07 03:31:16;;;;;;;9.48;7.30;;;;;;;-0.09;67.89;101822.19;5032411;28;20375;-22
2022/03/07 03:33:42;;;;;;;9.70;7.82;;;;;;;-0.11;67.64;101826.41;5030687;28;20468;-22
2022/03/07 03:36:08;;;;;;;9.85;7.63;;;;;;;-0.11;68.13;101826.41;5034240;28;20024;-22
2022/03/07 03:38:33;;;;;;;8.93;8.07;;;;;;;-0.10;67.75;101824.69;5034126;28;20027;-22
2022/03/07 03:40:58;;;;;;;8.63;7.72;;;;;;;-0.11;67.56;101821.19;5037194;28;20437;-22
2022/03/07 03:43:24;;;;;;;9.52;7.13;;;;;;;-0.12;67.60;101819.44;5033015;28;20020;-22
2022/03/07 03:45:49;;;;;;;11.77;7.93;;;;;;;-0.11;68.14;101830.72;5029288;28;20401;-22
2022/03/07 03:48:14;;;;;;;9.77;7.40;;;;;;;-0.13;67.94;101826.31;5034411;28;20390;-22
2022/03/07 03:50:40;;;;;;;10.05;7.60;;;;;;;-0.12;68.40;101827.22;5011260;28;20481;-22
2022/03/07 03:53:05;;;;;;;8.85;7.45;;;;;;;-0.14;67.89;101829.72;5030413;28;20128;-22
2022/03/07 03:55:31;;;;;;;9.02;8.10;;;;;;;-0.15;68.13;101829.63;5030347;28;20042;-22
2022/03/07 03:57:57;;;;;;;10.45;7.95;;;;;;;-0.17;67.79;101842.50;5030570;28;20036;-22
2022/03/07 04:00:23;;;;;;;8.57;7.68;;;;;;;-0.18;68.05;101832.97;5012303;28;20056;-22
2022/03/07 04:02:49;;;;;;;9.32;7.28;;;;;;;-0.17;67.88;101842.50;5032885;28;20029;-21
2022/03/07 04:05:15;;;;;;;8.85;7.18;;;;;;;-0.19;67.86;101844.16;5029455;28;20100;-22
2022/03/07 04:07:41;;;;;;;8.07;7.07;;;;;;;-0.20;67.71;101842.34;5014636;28;20036;-22
2022/03/07 04:10:07;;;;;;;8.15;7.35;;;;;;;-0.21;67.65;101845.75;5037034;28;20062;-22
2022/03/07 04:12:33;;;;;;;7.95;7.15;;;;;;;-0.21;67.86;101843.16;5028851;28;20111;-22
2022/03/07 04:14:58;;;;;;;7.65;6.75;;;;;;;-0.22;67.97;101837.88;5032291;28;20060;-22
2022/03/07 04:17:24;;;;;;;7.82;7.00;;;;;;;-0.22;67.83;101843.97;5030852;28;20025;-22
2022/03/07 04:19:49;;;;;;;9.07;8.18;;;;;;;-0.24;68.32;101845.59;5031344;28;20032;-21
2022/03/07 04:22:15;;;;;;;9.18;7.63;;;;;;;-0.24;67.74;101844.72;5034155;28;20060;-22
2022/03/07 04:24:41;;;;;;;8.40;7.28;;;;;;;-0.27;67.94;101840.22;5028838;28;20033;-22
2022/03/07 04:27:06;;;;;;;10.35;7.63;;;;;;;-0.26;67.85;101847.22;5033372;28;20411;-22
2022/03/07 04:29:32;;;;;;;9.18;7.07;;;;;;;-0.26;68.10;101849.81;5031280;28;20039;-21
2022/03/07 04:31:57;;;;;;;9.27;7.53;;;;;;;-0.26;68.15;101847.22;5034339;28;20038;-22
2022/03/07 04:34:23;;;;;;;8.90;7.28;;;;;;;-0.29;67.43;101841.88;5011708;28;20455;-22
2022/03/07 04:36:48;;;;;;;9.30;7.78;;;;;;;-0.30;67.75;101845.28;5029180;28;20029;-22
2022/03/07 04:39:14;;;;;;;7.93;6.45;;;;;;;-0.32;68.00;101842.59;5030357;28;20540;-22
2022/03/07 04:41:40;;;;;;;9.30;6.95;;;;;;;-0.33;67.53;101850.28;5028083;28;20700;-22
2022/03/07 04:44:05;;;;;;;7.47;6.78;;;;;;;-0.37;67.88;101843.16;5031890;28;20584;-22
2022/03/07 04:46:30;;;;;;;9.75;7.53;;;;;;;-0.36;67.47;101850.09;5027909;28;20033;-22
2022/03/07 04:48:56;;;;;;;8.55;7.25;;;;;;;-0.38;67.87;101852.63;5029775;28;20033;-22
2022/03/07 04:51:21;;;;;;;9.52;7.90;;;;;;;-0.41;67.80;101850.75;5031430;28;20460;-22
2022/03/07 04:53:47;;;;;;;8.05;7.22;;;;;;;-0.44;67.52;101847.97;5027718;28;20384;-22
2022/03/07 04:56:12;;;;;;;9.13;7.20;;;;;;;-0.48;67.80;101845.13;5025914;28;20112;-22
2022/03/07 04:58:38;;;;;;;9.60;7.15;;;;;;;-0.48;67.55;101846.03;5033386;28;20025;-22
2022/03/07 05:01:04;;;;;;;10.10;7.65;;;;;;;-0.50;67.70;101852.81;5030589;28;20044;-22
2022/03/07 05:03:29;;;;;;;8.02;6.85;;;;;;;-0.54;67.93;101856.03;5035087;28;21058;-22
2022/03/07 05:05:55;;;;;;;8.07;6.97;;;;;;;-0.57;67.62;101866.28;5018209;28;20056;-22
2022/03/07 05:08:20;;;;;;;7.72;6.93;;;;;;;-0.58;68.08;101865.38;5039114;28;20033;-22
2022/03/07 05:10:46;;;;;;;10.07;8.10;;;;;;;-0.62;67.69;101865.09;5040134;28;20486;-22
2022/03/07 05:13:11;;;;;;;9.30;7.32;;;;;;;-0.65;68.08;101864.13;5035831;28;20068;-22
2022/03/07 05:15:37;;;;;;;9.00;7.13;;;;;;;-0.68;67.24;101861.38;5028161;28;20037;-22
2022/03/07 05:18:02;;;;;;;8.18;6.95;;;;;;;-0.69;67.29;101876.81;5035515;28;20099;-22
2022/03/07 05:20:28;;;;;;;9.38;7.53;;;;;;;-0.71;67.80;101870.66;5036104;28;20033;-22
2022/03/07 05:22:53;;;;;;;9.35;7.55;;;;;;;-0.73;67.80;101874.88;5032711;28;20025;-22
2022/03/07 05:25:20;;;;;;;8.80;7.30;;;;;;;-0.76;67.52;101877.28;5004150;28;20037;-22
2022/03/07 05:27:46;;;;;;;9.73;8.23;;;;;;;-0.80;67.29;101871.06;5028998;28;20029;-22
2022/03/07 05:30:15;;;;;;;8.02;7.15;;;;;;;-0.83;67.11;101873.47;5027194;28;20036;-22
2022/03/07 05:32:45;;;;;;;10.88;7.30;;;;;;;-0.87;67.73;101871.50;5026793;28;21109;-22
2022/03/07 05:35:11;;;;;;;8.23;7.43;;;;;;;-0.89;67.20;101880.88;5027084;28;20083;-22
2022/03/07 05:37:37;;;;;;;8.07;7.20;;;;;;;-0.93;67.00;101885.88;5027102;28;20557;-22
2022/03/07 05:40:04;;;;;;;10.45;7.80;;;;;;;-0.95;67.49;101878.81;5029065;28;20061;-22
2022/03/07 05:42:29;;;;;;;8.63;7.43;;;;;;;-0.99;67.33;101882.94;5031675;28;20071;-22
2022/03/07 05:44:54;;;;;;;9.63;7.72;;;;;;;-1.01;67.47;101887.13;5028506;28;20108;-22
2022/03/07 05:47:20;;;;;;;8.40;6.85;;;;;;;-1.04;67.86;101884.34;5032871;28;20025;-22
2022/03/07 05:49:45;;;;;;;7.63;6.82;;;;;;;-1.07;67.78;101891.97;5028926;28;20056;-22
2022/03/07 05:52:10;;;;;;;8.80;7.90;;;;;;;-1.10;67.29;101899.56;5029226;28;20030;-22
2022/03/07 05:54:36;;;;;;;8.60;7.68;;;;;;;-1.11;67.69;101900.34;5031984;28;20022;-22
2022/03/07 05:57:01;;;;;;;8.77;6.57;;;;;;;-1.17;67.45;101896.59;5036406;28;20021;-22
2022/03/07 05:59:27;;;;;;;9.13;6.80;;;;;;;-1.18;67.38;101893.91;5034927;28;20027;-22
2022/03/07 06:01:52;;;;;;;7.82;7.03;;;;;;;-1.21;67.53;101888.53;5034314;28;20036;-22
2022/03/07 06:04:18;;;;;;;9.82;7.30;;;;;;;-1.22;67.76;101898.03;5029714;28;20017;-22
2022/03/07 06:06:43;;;;;;;7.78;6.82;;;;;;;-1.27;67.63;101902.00;5030636;28;20037;-22
2022/03/07 06:09:09;;;;;;;7.38;6.68;;;;;;;-1.30;67.28;101902.72;5036229;28;20028;-22
2022/03/07 06:11:34;;;;;;;8.43;7.40;;;;;;;-1.31;67.20;101906.13;5036875;28;20051;-22
2022/03/07 06:13:59;;;;;;;7.25;6.55;;;;;;;-1.35;67.31;101904.16;5032982;28;20032;-22
2022/03/07 06:16:25;;;;;;;8.55;6.93;;;;;;;-1.36;67.78;101907.56;5037969;28;20120;-22
2022/03/07 06:18:50;;;;;;;9.07;7.65;;;;;;;-1.39;67.40;101909.06;5034044;28;20037;-22
2022/03/07 06:21:16;;;;;;;7.78;7.03;;;;;;;-1.41;68.10;101911.56;5036479;28;20425;-22
2022/03/07 06:23:42;;;;;;;8.68;6.93;;;;;;;-1.43;67.77;101916.63;5037357;28;20056;-22
2022/03/07 06:26:08;;;;;;;8.13;7.03;;;;;;;-1.46;67.53;101916.44;5022626;28;20026;-22
2022/03/07 06:28:33;;;;;;;8.23;7.35;;;;;;;-1.47;67.88;101917.25;5041957;28;20028;-22
2022/03/07 06:30:59;;;;;;;8.68;7.25;;;;;;;-1.49;67.83;101913.69;5024741;28;20032;-22
2022/03/07 06:33:25;;;;;;;10.15;8.07;;;;;;;-1.51;68.24;101912.69;5019470;28;20078;-22
2022/03/07 06:35:50;;;;;;;8.88;6.75;;;;;;;-1.52;67.84;101916.09;5040426;28;20849;-22
2022/03/07 06:38:16;;;;;;;8.23;7.43;;;;;;;-1.54;68.08;101922.84;5022795;28;20029;-22
2022/03/07 06:40:42;;;;;;;9.32;7.65;;;;;;;-1.52;68.51;101926.44;5032114;28;20033;-22
2022/03/07 06:43:07;;;;;;;9.65;7.47;;;;;;;-1.57;68.48;101928.75;5039699;28;20027;-22
2022/03/07 06:45:32;;;;;;;9.05;7.97;;;;;;;-1.56;68.71;101929.66;5017182;28;20028;-22
2022/03/07 06:47:59;;;;;;;8.45;7.63;;;;;;;-1.57;68.21;101930.47;5039370;28;20029;-22
2022/03/07 06:50:25;;;;;;;8.82;7.95;;;;;;;-1.56;68.52;101927.94;5028715;28;20033;-22
2022/03/07 06:52:50;;;;;;;8.75;7.85;;;;;;;-1.57;68.04;101918.38;5037546;28;20025;-22
2022/03/07 06:55:16;;;;;;;9.63;7.90;;;;;;;-1.56;68.67;101921.88;5040889;28;20028;-22
2022/03/07 06:57:42;;;;;;;8.93;8.00;;;;;;;-1.55;68.67;101916.81;5017220;28;20467;-22
2022/03/07 07:00:14;;;;;;;9.68;7.97;;;;;;;-1.51;68.58;101924.72;5041646;28;20028;-22
2022/03/07 07:02:39;;;;;;;9.95;7.95;;;;;;;-1.52;69.13;101926.44;5032267;28;20033;-22
2022/03/07 07:05:06;;;;;;;11.50;8.18;;;;;;;-1.48;68.68;101927.50;5033775;28;20546;-22
2022/03/07 07:07:32;;;;;;;10.93;8.48;;;;;;;-1.47;69.32;101932.78;5030813;28;20064;-22
2022/03/07 07:09:57;;;;;;;8.75;7.72;;;;;;;-1.44;69.12;101930.38;5037391;28;20056;-22
2022/03/07 07:12:22;;;;;;;11.65;8.55;;;;;;;-1.39;68.88;101937.53;5031997;28;20029;-22
2022/03/07 07:14:48;;;;;;;11.07;8.75;;;;;;;-1.36;69.41;101937.72;5036236;28;20123;-22
2022/03/07 07:17:13;;;;;;;12.18;9.32;;;;;;;-1.34;69.62;101937.00;5041091;28;20479;-22
2022/03/07 07:19:39;;;;;;;11.85;8.73;;;;;;;-1.30;69.67;101933.78;5037678;28;20511;-22
2022/03/07 07:22:04;;;;;;;12.15;9.30;;;;;;;-1.26;69.28;101939.16;5029792;28;20175;-22
2022/03/07 07:24:29;;;;;;;11.63;8.95;;;;;;;-1.21;69.31;101940.31;5028161;28;20037;-22
2022/03/07 07:26:55;;;;;;;9.45;8.50;;;;;;;-1.17;69.68;101937.09;5008184;28;20049;-22
2022/03/07 07:29:20;;;;;;;10.77;8.73;;;;;;;-1.16;69.59;101939.78;5028257;28;20112;-22
2022/03/07 07:31:47;;;;;;;12.75;9.35;;;;;;;-1.08;69.65;101934.19;5031637;28;20434;-22
2022/03/07 07:34:13;;;;;;;9.68;8.60;;;;;;;-1.04;69.48;101941.31;5030589;28;20044;-22
2022/03/07 07:36:38;;;;;;;11.70;9.48;;;;;;;-1.00;69.15;101932.94;5026781;28;20025;-22
2022/03/07 07:39:04;;;;;;;13.40;10.60;;;;;;;-0.94;69.13;101941.06;5030671;28;20380;-22
2022/03/07 07:41:29;;;;;;;11.10;8.50;;;;;;;-0.91;69.62;101932.59;5030552;28;20083;-22
2022/03/07 07:43:55;;;;;;;13.30;9.55;;;;;;;-0.85;69.30;101945.00;5030072;28;20029;-22
2022/03/07 07:46:20;;;;;;;12.05;9.68;;;;;;;-0.80;69.08;101948.78;5005072;28;20501;-22
2022/03/07 07:48:46;;;;;;;10.70;8.77;;;;;;;-0.77;68.95;101951.50;5026604;28;20041;-22
2022/03/07 07:51:11;;;;;;;13.45;9.70;;;;;;;-0.73;68.96;101956.06;5029952;28;20479;-22
2022/03/07 07:53:36;;;;;;;11.40;9.32;;;;;;;-0.69;69.09;101946.78;5024209;28;20118;-22
2022/03/07 07:56:03;;;;;;;12.48;9.35;;;;;;;-0.63;69.23;101943.66;5034342;28;20107;-22
2022/03/07 07:58:29;;;;;;;10.48;9.25;;;;;;;-0.60;68.94;101949.91;5027603;28;20502;-22
2022/03/07 08:00:54;;;;;;;11.98;9.68;;;;;;;-0.53;69.12;101953.75;5027465;28;20037;-22
2022/03/07 08:03:19;;;;;;;12.25;9.27;;;;;;;-0.46;69.11;101955.91;5030601;28;20028;-21
2022/03/07 08:05:48;;;;;;;11.10;9.35;;;;;;;-0.44;69.40;101950.78;5031023;28;20025;-22
2022/03/07 08:08:14;;;;;;;11.82;9.20;;;;;;;-0.36;69.24;101959.91;5014575;28;20415;-21
2022/03/07 08:10:39;;;;;;;12.07;9.38;;;;;;;-0.30;69.44;101964.53;5015196;28;20037;-22
2022/03/07 08:13:04;;;;;;;13.68;9.60;;;;;;;-0.26;69.31;101966.50;5029790;28;20470;-21
2022/03/07 08:15:30;;;;;;;12.40;10.15;;;;;;;-0.19;69.25;101973.81;5030225;28;20104;-21
2022/03/07 08:17:55;;;;;;;14.50;10.07;;;;;;;-0.10;69.08;101968.22;5030721;28;20502;-21
2022/03/07 08:20:22;;;;;;;11.63;9.55;;;;;;;-0.04;69.03;101970.28;5029994;28;20097;-21
2022/03/07 08:22:49;;;;;;;12.43;9.48;;;;;;;0.03;69.02;101963.75;5029762;28;20483;-21
2022/03/07 08:25:14;;;;;;;11.20;9.65;;;;;;;0.06;68.72;101969.97;5033794;28;20422;-21
2022/03/07 08:27:40;;;;;;;12.40;9.75;;;;;;;0.15;68.58;101958.31;5013255;28;20041;-21
2022/03/07 08:30:09;;;;;;;10.93;9.20;;;;;;;0.23;68.72;101959.63;5031407;28;20524;-21
2022/03/07 08:32:35;;;;;;;10.75;9.05;;;;;;;0.33;68.39;101948.94;5028384;28;20388;-21
2022/03/07 08:35:01;;;;;;;10.63;9.50;;;;;;;0.42;68.52;101950.22;5028280;28;20021;-21
2022/03/07 08:37:26;;;;;;;12.80;9.30;;;;;;;0.48;68.21;101948.88;5027948;28;20021;-21
2022/03/07 08:39:51;;;;;;;11.35;9.57;;;;;;;0.58;68.20;101947.66;5029116;28;20068;-21
2022/03/07 08:42:17;;;;;;;10.32;8.18;;;;;;;0.65;67.83;101935.88;5024665;28;20388;-21
2022/03/07 08:44:42;;;;;;;12.63;8.65;;;;;;;0.75;67.89;101945.03;5032269;28;20056;-21
2022/03/07 08:47:09;;;;;;;9.13;8.10;;;;;;;0.82;67.94;101944.53;5029538;28;20092;-21
2022/03/07 08:49:35;;;;;;;11.70;8.80;;;;;;;0.95;68.11;101947.75;5033188;28;20013;-21
2022/03/07 08:52:00;;;;;;;9.50;8.40;;;;;;;1.04;67.73;101949.94;5026577;28;20371;-21
2022/03/07 08:54:25;;;;;;;10.98;8.77;;;;;;;1.12;67.01;101952.13;5027427;28;20029;-22
2022/03/07 08:56:51;;;;;;;10.23;8.13;;;;;;;1.22;67.50;101955.16;5026240;28;20025;-21
2022/03/07 08:59:16;;;;;;;11.32;9.05;;;;;;;1.31;67.59;101955.66;5030942;28;20022;-21
2022/03/07 09:01:41;;;;;;;10.73;8.35;;;;;;;1.38;66.88;101957.75;5025968;28;20029;-21
2022/03/07 09:04:07;;;;;;;10.80;8.23;;;;;;;1.48;67.18;101968.56;5025802;28;20036;-21
2022/03/07 09:06:33;;;;;;;11.90;8.40;;;;;;;1.54;66.92;101971.50;5031306;28;20064;-21
2022/03/07 09:08:58;;;;;;;12.07;7.35;;;;;;;1.62;66.91;101971.84;5007400;28;20116;-21
2022/03/07 09:11:23;;;;;;;9.80;7.97;;;;;;;1.69;66.87;101973.94;5026220;28;20479;-22
2022/03/07 09:13:49;;;;;;;12.30;7.95;;;;;;;1.79;66.92;101981.38;5024046;28;20095;-21
2022/03/07 09:16:14;;;;;;;9.75;8.18;;;;;;;1.86;66.79;101977.34;5032626;28;20032;-22
2022/03/07 09:18:41;;;;;;;10.48;7.78;;;;;;;1.99;66.54;101980.53;5028345;28;20124;-22
2022/03/07 09:21:06;;;;;;;10.98;8.38;;;;;;;2.07;66.38;101976.59;5026979;28;20045;-22
2022/03/07 09:23:37;;;;;;;12.00;7.95;;;;;;;2.16;66.59;101979.63;5027674;28;20025;-22
2022/03/07 09:26:02;;;;;;;11.13;7.85;;;;;;;2.25;66.29;101975.66;5029094;28;20033;-22
2022/03/07 09:28:28;;;;;;;9.82;7.68;;;;;;;2.33;66.35;101969.09;5030941;28;20030;-22
2022/03/07 09:30:53;;;;;;;13.02;8.20;;;;;;;2.39;66.30;101974.59;5028130;28;20384;-22
2022/03/07 09:33:18;;;;;;;10.82;7.28;;;;;;;2.49;66.03;101978.50;5033303;28;20045;-22
2022/03/07 09:35:44;;;;;;;11.27;8.95;;;;;;;2.59;66.24;101977.19;5034060;28;20025;-22
2022/03/07 09:38:09;;;;;;;11.13;8.40;;;;;;;2.67;65.82;101964.53;5028369;28;20468;-22
2022/03/07 09:40:34;;;;;;;10.80;8.07;;;;;;;2.76;65.56;101977.03;5028324;28;20040;-22
2022/03/07 09:43:00;;;;;;;10.88;7.93;;;;;;;2.82;66.05;101977.34;5025729;28;20577;-22
2022/03/07 09:45:26;;;;;;;13.13;8.75;;;;;;;2.92;65.48;101976.91;5032328;28;20025;-22
2022/03/07 09:47:51;;;;;;;9.88;8.38;;;;;;;3.02;65.36;101972.09;5010273;28;20037;-21
2022/03/07 09:50:17;;;;;;;10.52;7.93;;;;;;;3.15;65.28;101979.63;5024874;28;20150;-22
2022/03/07 09:52:45;;;;;;;10.05;8.00;;;;;;;3.25;65.17;101975.69;5026243;28;20164;-22
2022/03/07 09:55:13;;;;;;;10.13;8.43;;;;;;;3.36;65.11;101976.13;5024658;28;20029;-21
2022/03/07 09:57:39;;;;;;;8.25;7.45;;;;;;;3.45;64.67;101966.09;5016837;28;20021;-22
2022/03/07 10:00:05;;;;;;;10.23;8.45;;;;;;;3.55;64.72;101963.84;5027890;28;20372;-21
2022/03/07 10:02:30;;;;;;;9.02;8.07;;;;;;;3.67;64.60;101964.34;5010889;28;20091;-21
2022/03/07 10:04:59;;;;;;;9.13;7.65;;;;;;;3.75;64.68;101966.38;5029306;28;20525;-21
2022/03/07 10:07:25;;;;;;;11.02;7.45;;;;;;;3.87;64.34;101953.78;5026111;28;20494;-21
2022/03/07 10:09:50;;;;;;;11.10;7.32;;;;;;;3.98;64.13;101946.41;5028074;28;20149;-21
2022/03/07 10:12:15;;;;;;;10.25;7.18;;;;;;;4.10;64.46;101948.56;5031003;28;20104;-22
2022/03/07 10:14:46;;;;;;;7.43;6.53;;;;;;;4.21;63.92;101956.84;5015511;28;20025;-21
2022/03/07 10:17:33;;;;;;;9.45;7.32;;;;;;;4.32;64.31;101944.16;5034669;28;20068;-21
2022/03/07 10:20:04;;;;;;;11.45;8.45;;;;;;;4.42;64.28;101940.19;5032812;28;20041;-21
2022/03/07 10:22:30;;;;;;;10.80;8.45;;;;;;;4.50;63.48;101933.50;5032805;28;20035;-21
2022/03/07 10:25:01;;;;;;;8.57;6.97;;;;;;;4.62;63.45;101938.28;5035236;28;20162;-21
2022/03/07 10:27:31;;;;;;;13.15;7.05;;;;;;;4.71;63.49;101930.78;5029141;28;20033;-21
2022/03/07 10:29:57;;;;;;;9.50;7.32;;;;;;;4.79;62.77;101935.38;5031803;28;20040;-21
2022/03/07 10:32:22;;;;;;;9.07;7.50;;;;;;;4.89;62.71;101937.50;5032922;28;20022;-21
2022/03/07 10:34:48;;;;;;;9.05;7.22;;;;;;;4.97;62.27;101930.78;5028466;28;20527;-21
2022/03/07 10:37:13;;;;;;;11.63;8.85;;;;;;;5.04;61.97;101938.88;4996564;28;20037;-21
2022/03/07 10:39:46;;;;;;;9.75;8.07;;;;;;;5.11;61.98;101933.00;5027684;28;20026;-21
2022/03/07 10:42:16;;;;;;;10.13;7.25;;;;;;;5.19;61.90;101934.16;5026450;28;20033;-21
2022/03/07 10:44:42;;;;;;;8.75;7.25;;;;;;;5.29;62.41;101939.66;5011579;28;20027;-21
2022/03/07 10:47:09;;;;;;;12.20;8.02;;;;;;;5.31;62.34;101930.16;5031331;28;21456;-21
2022/03/07 10:49:35;;;;;;;9.93;7.63;;;;;;;5.39;61.94;101939.16;5029102;28;20271;-21
2022/03/07 10:52:03;;;;;;;9.85;8.52;;;;;;;5.46;62.27;101951.59;4995983;28;20029;-21
2022/03/07 10:54:29;;;;;;;7.88;7.15;;;;;;;5.48;61.43;101934.22;5030720;28;20033;-21
2022/03/07 10:56:56;;;;;;;11.18;7.50;;;;;;;5.50;61.60;101940.38;5030853;28;20029;-21
2022/03/07 10:59:31;;;;;;;10.30;7.35;;;;;;;5.59;61.27;101944.13;5028523;28;20105;-21
2022/03/07 11:02:03;;;;;;;8.95;7.38;;;;;;;5.67;61.44;101937.41;5028409;28;20044;-21
2022/03/07 11:04:29;;;;;;;7.88;7.05;;;;;;;5.64;61.14;101930.34;5029103;28;20017;-21
2022/03/07 11:06:55;;;;;;;8.93;7.07;;;;;;;5.70;61.48;101940.13;5029518;28;20063;-21
2022/03/07 11:09:20;;;;;;;7.70;6.35;;;;;;;5.73;61.36;101940.22;5029113;28;20029;-22
2022/03/07 11:11:46;;;;;;;7.07;6.38;;;;;;;5.76;61.46;101929.88;5028405;28;20431;-22
2022/03/07 11:14:13;;;;;;;8.75;7.10;;;;;;;5.83;61.53;101936.16;5030714;28;20491;-22
2022/03/07 11:16:39;;;;;;;7.95;7.15;;;;;;;5.92;61.58;101927.72;5027128;28;20033;-22
2022/03/07 11:19:06;;;;;;;8.23;6.50;;;;;;;6.00;61.43;101926.22;5030763;28;20091;-22
2022/03/07 11:21:32;;;;;;;8.40;7.60;;;;;;;6.05;61.69;101917.63;5033392;28;20119;-22